Time;durP1;ratioP1;P1;durP2;ratioP2;P2;SDS_P1;SDS_P2;PMS_P1;PMS_P2;Temp;Humidity;BMP_temperature;BMP_pressure;BME280_temperature;BME280_humidity;BME280_pressure;Samples;Min_cycle;Max_cycle;Signal;HPM_P1;HPM_P2
2023/09/28 00:00:39;;;;;;;31.00;29.23;;;;;;;16.47;100.00;101407.16;4955644;28;20460;-40
2023/09/28 00:03:13;;;;;;;30.20;28.60;;;;;;;16.50;100.00;101408.59;4941028;28;20485;-42
2023/09/28 00:05:43;;;;;;;30.33;28.83;;;;;;;16.51;100.00;101403.00;4956180;29;20443;-42
2023/09/28 00:10:59;;;;;;;29.00;27.60;;;;;;;16.57;100.00;101404.84;4957032;28;20899;-41
2023/09/28 00:13:47;;;;;;;29.87;28.23;;;;;;;16.59;100.00;101400.06;4956208;28;20475;-42
2023/09/28 00:16:31;;;;;;;28.90;27.50;;;;;;;16.61;100.00;101404.41;4956493;28;20427;-41
2023/09/28 00:18:59;;;;;;;30.87;29.27;;;;;;;16.62;100.00;101406.03;4954940;29;20439;-40
2023/09/28 00:21:28;;;;;;;30.27;28.73;;;;;;;16.63;100.00;101413.06;4956123;28;21002;-39
2023/09/28 00:23:55;;;;;;;30.07;28.57;;;;;;;16.62;100.00;101406.03;4956896;28;20503;-41
2023/09/28 00:26:24;;;;;;;30.20;28.70;;;;;;;16.62;100.00;101396.09;4956666;28;20475;-41
2023/09/28 00:29:00;;;;;;;29.80;28.10;;;;;;;16.64;100.00;101401.25;4956073;29;20452;-41
2023/09/28 00:31:36;;;;;;;30.27;28.60;;;;;;;16.65;100.00;101405.59;4954237;28;20503;-41
2023/09/28 00:34:08;;;;;;;30.37;28.57;;;;;;;16.66;100.00;101402.69;4955437;28;20566;-41
2023/09/28 00:36:45;;;;;;;29.30;27.90;;;;;;;16.65;100.00;101403.72;4955745;28;20436;-39
2023/09/28 00:39:12;;;;;;;30.83;29.33;;;;;;;16.66;100.00;101408.06;4955551;28;20428;-40
2023/09/28 00:41:45;;;;;;;29.17;27.60;;;;;;;16.67;100.00;101409.72;4955941;28;21007;-41
2023/09/28 00:44:21;;;;;;;29.30;27.90;;;;;;;16.67;100.00;101409.72;4933060;28;20574;-42
2023/09/28 00:47:05;;;;;;;28.13;26.73;;;;;;;16.68;100.00;101414.06;4930580;28;20482;-46
2023/09/28 00:49:32;;;;;;;29.50;27.90;;;;;;;16.70;100.00;101409.25;4954909;29;20440;-42
2023/09/28 00:52:01;;;;;;;29.77;28.03;;;;;;;16.75;100.00;101405.94;4954612;28;20538;-43
2023/09/28 00:54:29;;;;;;;30.97;28.90;;;;;;;16.79;100.00;101396.34;4955107;29;20514;-41
2023/09/28 00:56:58;;;;;;;28.53;27.20;;;;;;;16.81;100.00;101389.72;4954106;28;20494;-40
2023/09/28 00:59:27;;;;;;;29.00;27.40;;;;;;;16.87;100.00;101391.53;4954684;29;20514;-42
2023/09/28 01:01:56;;;;;;;29.67;27.87;;;;;;;16.91;100.00;101398.09;4954467;28;20478;-41
2023/09/28 01:04:23;;;;;;;29.10;27.80;;;;;;;16.96;100.00;101402.84;4954826;29;20432;-40
2023/09/28 01:06:54;;;;;;;29.00;27.70;;;;;;;16.98;100.00;101395.34;4953555;28;20468;-42
2023/09/28 01:09:23;;;;;;;29.97;28.20;;;;;;;16.99;100.00;101395.09;4954147;28;20538;-43
2023/09/28 01:11:52;;;;;;;28.80;27.30;;;;;;;17.01;100.00;101394.91;4953394;28;20819;-42
2023/09/28 01:14:21;;;;;;;29.60;27.97;;;;;;;17.00;100.00;101377.91;4954525;28;20466;-42
2023/09/28 01:16:50;;;;;;;30.83;29.33;;;;;;;17.01;100.00;101379.56;4951157;28;20621;-40
2023/09/28 01:19:18;;;;;;;29.63;28.00;;;;;;;17.00;100.00;101372.50;4954540;28;20428;-40
2023/09/28 01:24:34;;;;;;;28.07;26.63;;;;;;;17.04;100.00;101346.78;4955714;29;20452;-41
2023/09/28 01:27:02;;;;;;;29.90;28.27;;;;;;;17.07;100.00;101348.19;4954067;28;20470;-40
2023/09/28 01:29:40;;;;;;;30.73;28.90;;;;;;;17.07;100.00;101332.84;4954899;28;20427;-42
2023/09/28 01:32:15;;;;;;;29.07;27.67;;;;;;;17.09;100.00;101341.53;4954029;28;20510;-40
2023/09/28 01:34:49;;;;;;;29.33;27.83;;;;;;;17.11;100.00;101350.19;4952385;28;20580;-41
2023/09/28 01:37:19;;;;;;;30.53;28.97;;;;;;;17.12;100.00;101356.41;4954842;28;20455;-41
2023/09/28 01:39:48;;;;;;;32.20;30.47;;;;;;;17.10;100.00;101356.66;4954823;28;20435;-39
2023/09/28 01:42:15;;;;;;;31.70;30.07;;;;;;;17.09;100.00;101338.00;4954773;28;20847;-41
2023/09/28 01:44:43;;;;;;;30.97;29.37;;;;;;;17.07;100.00;101324.78;4953834;29;20482;-40
2023/09/28 01:47:12;;;;;;;33.30;31.47;;;;;;;17.07;100.00;101316.69;4949938;28;20474;-40
2023/09/28 01:49:41;;;;;;;32.60;30.33;;;;;;;17.10;100.00;101342.34;4955355;28;20439;-41
2023/09/28 01:52:12;;;;;;;32.87;31.07;;;;;;;17.09;100.00;101343.38;4955047;28;20870;-41
2023/09/28 01:55:17;;;;;;;33.33;31.33;;;;;;;17.08;100.00;101339.06;4953534;29;20831;-41
2023/09/28 01:57:49;;;;;;;32.20;30.40;;;;;;;17.06;100.00;101343.84;4946372;28;20574;-39
2023/09/28 02:00:25;;;;;;;32.53;30.90;;;;;;;17.04;100.00;101337.88;4954488;28;21016;-40
2023/09/28 02:02:54;;;;;;;32.50;30.60;;;;;;;17.00;100.00;101333.97;4925810;28;20974;-42
2023/09/28 02:05:24;;;;;;;32.77;30.77;;;;;;;16.99;100.00;101326.94;4953817;28;21140;-43
2023/09/28 02:07:51;;;;;;;32.70;31.00;;;;;;;16.97;100.00;101329.03;4953482;28;20477;-40
2023/09/28 02:10:19;;;;;;;33.50;31.70;;;;;;;16.95;100.00;101329.25;4953547;28;20463;-46
2023/09/28 02:12:47;;;;;;;33.43;31.73;;;;;;;16.93;100.00;101335.91;4952365;28;20467;-42
2023/09/28 02:15:16;;;;;;;34.60;32.80;;;;;;;16.90;100.00;101350.66;4953451;28;20443;-42
2023/09/28 02:17:44;;;;;;;33.57;31.57;;;;;;;16.87;100.00;101356.50;4953319;28;20432;-39
2023/09/28 02:20:16;;;;;;;33.83;31.87;;;;;;;16.85;100.00;101347.78;4953387;28;20523;-40
2023/09/28 02:22:44;;;;;;;32.67;30.97;;;;;;;16.85;100.00;101345.09;4952731;28;20459;-41
2023/09/28 02:25:15;;;;;;;34.07;31.67;;;;;;;16.86;100.00;101330.59;4953612;28;20428;-41
2023/09/28 02:27:43;;;;;;;32.77;31.00;;;;;;;16.84;100.00;101332.69;4946755;28;20875;-42
2023/09/28 02:30:14;;;;;;;35.13;33.00;;;;;;;16.83;100.00;101324.81;4953494;28;20463;-41
2023/09/28 02:32:43;;;;;;;34.60;32.60;;;;;;;16.82;100.00;101317.78;4946070;28;20527;-39
2023/09/28 02:35:17;;;;;;;35.07;32.70;;;;;;;16.81;100.00;101313.47;4946005;29;20450;-41
2023/09/28 02:37:58;;;;;;;34.87;32.97;;;;;;;16.80;100.00;101319.88;4953892;29;20785;-40
2023/09/28 02:40:26;;;;;;;35.67;33.53;;;;;;;16.78;100.00;101314.75;4954706;29;20511;-39
2023/09/28 02:42:53;;;;;;;34.13;32.23;;;;;;;16.77;100.00;101307.69;4953425;28;20860;-39
2023/09/28 02:45:30;;;;;;;35.80;33.43;;;;;;;16.74;100.00;101302.75;4958988;28;20495;-41
2023/09/28 02:48:08;;;;;;;34.20;32.20;;;;;;;16.74;100.00;101301.91;4954562;28;20474;-41
2023/09/28 02:50:51;;;;;;;36.40;34.60;;;;;;;16.72;100.00;101302.16;4953867;28;20435;-42
2023/09/28 02:53:22;;;;;;;35.17;33.37;;;;;;;16.72;100.00;101306.72;4952948;28;20472;-39
2023/09/28 02:56:00;;;;;;;35.80;34.00;;;;;;;16.70;100.00;101306.09;4954157;28;20539;-42
2023/09/28 02:58:32;;;;;;;36.00;33.67;;;;;;;16.68;100.00;101290.19;4953731;28;20490;-40
2023/09/28 03:01:00;;;;;;;34.93;33.03;;;;;;;16.65;100.00;101287.94;4953504;28;20446;-40
2023/09/28 03:03:29;;;;;;;38.47;36.07;;;;;;;16.64;100.00;101307.00;4952046;28;20475;-40
2023/09/28 03:05:58;;;;;;;37.40;34.83;;;;;;;16.62;100.00;101304.53;4953173;29;20432;-40
2023/09/28 03:08:31;;;;;;;37.10;35.20;;;;;;;16.61;100.00;101304.78;4952576;29;20542;-41
2023/09/28 03:11:15;;;;;;;38.47;36.20;;;;;;;16.58;100.00;101303.31;4953240;28;20562;-43
2023/09/28 03:13:43;;;;;;;38.13;36.00;;;;;;;16.55;100.00;101304.59;4931795;28;20558;-41
2023/09/28 03:16:12;;;;;;;37.30;35.30;;;;;;;16.53;100.00;101298.59;4954104;29;20479;-42
2023/09/28 03:18:47;;;;;;;38.50;36.60;;;;;;;16.51;100.00;101300.69;4938084;29;20437;-41
2023/09/28 03:21:14;;;;;;;37.97;35.87;;;;;;;16.50;100.00;101282.03;4922670;28;20463;-40
2023/09/28 03:23:42;;;;;;;38.87;36.67;;;;;;;16.49;100.00;101289.28;4952771;28;20439;-40
2023/09/28 03:26:11;;;;;;;38.37;36.27;;;;;;;16.48;100.00;101287.66;4950073;28;20940;-43
2023/09/28 03:28:39;;;;;;;40.20;38.13;;;;;;;16.48;100.00;101289.53;4948399;29;20513;-42
2023/09/28 03:31:07;;;;;;;40.53;38.03;;;;;;;16.48;100.00;101284.97;4951805;28;20550;-40
2023/09/28 03:33:35;;;;;;;39.17;37.10;;;;;;;16.47;100.00;101288.69;4953010;28;20444;-40
2023/09/28 03:36:04;;;;;;;38.20;36.30;;;;;;;16.47;100.00;101285.19;4955590;28;20538;-42
2023/09/28 03:38:32;;;;;;;37.40;35.57;;;;;;;16.47;100.00;101271.72;4956489;28;20435;-42
2023/09/28 03:41:08;;;;;;;39.83;37.80;;;;;;;16.47;100.00;101282.50;4955570;28;20470;-40
2023/09/28 03:43:38;;;;;;;39.23;37.03;;;;;;;16.48;100.00;101260.75;4956414;28;20502;-42
2023/09/28 03:46:06;;;;;;;39.53;37.33;;;;;;;16.48;100.00;101263.44;4956509;28;20428;-42
2023/09/28 03:48:37;;;;;;;39.10;36.90;;;;;;;16.51;100.00;101270.25;4956473;28;20481;-41
2023/09/28 03:51:07;;;;;;;37.47;35.27;;;;;;;16.51;100.00;101263.00;4954888;28;20477;-41
2023/09/28 03:53:39;;;;;;;40.40;38.10;;;;;;;16.53;100.00;101257.38;4956899;28;20438;-39
2023/09/28 03:56:07;;;;;;;39.07;36.73;;;;;;;16.52;100.00;101245.78;4957163;28;20473;-40
2023/09/28 03:58:47;;;;;;;40.73;38.43;;;;;;;16.53;100.00;101236.66;4957010;28;20431;-40
2023/09/28 04:01:29;;;;;;;39.63;37.40;;;;;;;16.54;100.00;101235.66;4924821;29;20559;-41
2023/09/28 04:03:58;;;;;;;40.43;38.23;;;;;;;16.57;100.00;101237.06;4957040;29;20492;-42
2023/09/28 04:06:29;;;;;;;40.17;37.93;;;;;;;16.57;100.00;101237.06;4956483;29;20427;-45
2023/09/28 04:09:03;;;;;;;42.40;39.70;;;;;;;16.57;100.00;101251.38;4955553;28;20855;-41
2023/09/28 04:11:44;;;;;;;40.30;38.10;;;;;;;16.59;100.00;101251.13;4955831;28;20475;-42
2023/09/28 04:14:28;;;;;;;41.57;39.17;;;;;;;16.61;100.00;101257.09;4956306;29;20428;-39
2023/09/28 04:16:56;;;;;;;41.70;39.30;;;;;;;16.60;100.00;101244.69;4956379;28;20447;-41
2023/09/28 04:19:38;;;;;;;39.83;37.73;;;;;;;16.61;100.00;101251.72;4955988;28;20446;-42
2023/09/28 04:22:45;;;;;;;39.70;37.53;;;;;;;16.63;100.00;101297.28;4956739;28;20459;-42
2023/09/28 04:25:20;;;;;;;39.13;36.97;;;;;;;16.64;100.00;101296.22;4955805;28;20440;-42
2023/09/28 04:27:49;;;;;;;40.70;38.60;;;;;;;16.66;100.00;101294.97;4956219;29;20475;-40
2023/09/28 04:30:18;;;;;;;38.87;36.53;;;;;;;16.69;100.00;101299.09;4955441;28;20479;-40
2023/09/28 04:32:50;;;;;;;39.80;37.63;;;;;;;16.71;100.00;101291.59;4932442;28;20499;-42
2023/09/28 04:35:18;;;;;;;39.73;37.57;;;;;;;16.73;100.00;101276.03;4923128;28;20495;-43
2023/09/28 04:37:47;;;;;;;39.67;37.57;;;;;;;16.73;100.00;101279.53;4955226;29;20440;-44
2023/09/28 04:40:15;;;;;;;39.63;37.40;;;;;;;16.70;100.00;101280.00;4955248;29;20459;-47
2023/09/28 04:42:44;;;;;;;40.20;38.00;;;;;;;16.70;100.00;101280.00;4955298;28;20459;-41
2023/09/28 04:45:12;;;;;;;39.43;37.43;;;;;;;16.69;100.00;101277.53;4954864;28;20459;-44
2023/09/28 04:47:42;;;;;;;42.80;40.00;;;;;;;16.67;100.00;101280.44;4954089;28;20440;-42
2023/09/28 04:50:11;;;;;;;41.83;39.73;;;;;;;16.65;100.00;101277.16;4954857;28;20446;-42
2023/09/28 04:52:38;;;;;;;42.97;40.77;;;;;;;16.63;100.00;101273.88;4954896;28;20460;-43
2023/09/28 04:55:08;;;;;;;43.70;41.30;;;;;;;16.58;100.00;101271.00;4954200;28;20546;-42
2023/09/28 04:57:36;;;;;;;41.97;39.57;;;;;;;16.58;100.00;101276.41;4954746;28;20446;-42
2023/09/28 05:00:08;;;;;;;44.30;42.03;;;;;;;16.54;100.00;101270.66;4954722;28;20435;-42
2023/09/28 05:02:36;;;;;;;43.50;41.00;;;;;;;16.52;100.00;101264.63;4954202;28;20889;-42
2023/09/28 05:05:08;;;;;;;44.10;41.40;;;;;;;16.50;100.00;101271.28;4954162;28;20455;-41
2023/09/28 05:07:36;;;;;;;44.77;42.33;;;;;;;16.49;100.00;101280.38;4954778;28;20443;-46
2023/09/28 05:10:07;;;;;;;40.50;38.30;;;;;;;16.47;100.00;101290.56;4954371;28;20562;-41
2023/09/28 05:12:34;;;;;;;44.33;41.80;;;;;;;16.47;100.00;101282.50;4953692;28;20539;-42
2023/09/28 05:15:03;;;;;;;47.07;44.47;;;;;;;16.45;100.00;101296.19;4953847;28;20489;-42
2023/09/28 05:17:33;;;;;;;45.70;43.00;;;;;;;16.46;100.00;101288.91;4954537;28;20852;-42
2023/09/28 05:20:01;;;;;;;43.90;41.17;;;;;;;16.45;100.00;101288.09;4954001;29;20442;-42
2023/09/28 05:22:29;;;;;;;43.93;41.27;;;;;;;16.48;100.00;101292.22;4953905;28;20970;-42
2023/09/28 05:24:56;;;;;;;46.43;43.63;;;;;;;16.49;100.00;101291.16;4954110;28;20455;-43
2023/09/28 05:27:24;;;;;;;44.27;41.87;;;;;;;16.50;100.00;101290.13;4954084;28;20550;-40
2023/09/28 05:29:52;;;;;;;45.43;42.37;;;;;;;16.48;100.00;101301.13;4953927;28;20485;-42
2023/09/28 05:32:19;;;;;;;44.80;42.27;;;;;;;16.48;100.00;101311.91;4954325;28;20466;-43
2023/09/28 05:34:48;;;;;;;41.80;39.60;;;;;;;16.49;100.00;101315.38;4953513;28;20498;-42
2023/09/28 05:37:16;;;;;;;42.43;39.77;;;;;;;16.48;100.00;101316.44;4954220;28;20435;-42
2023/09/28 05:39:44;;;;;;;42.23;39.93;;;;;;;16.48;100.00;101319.16;4954217;28;20466;-44
2023/09/28 05:42:11;;;;;;;44.47;41.70;;;;;;;16.50;100.00;101317.03;4953726;28;20605;-44
2023/09/28 05:44:39;;;;;;;42.53;40.00;;;;;;;16.52;100.00;101314.94;4953496;28;20432;-47
2023/09/28 05:47:07;;;;;;;42.47;40.00;;;;;;;16.52;100.00;101314.94;4954088;29;20435;-44
2023/09/28 05:49:34;;;;;;;45.60;42.67;;;;;;;16.55;100.00;101311.84;4954010;29;21238;-43
2023/09/28 05:52:04;;;;;;;42.23;40.13;;;;;;;16.56;100.00;101317.03;4953316;28;20459;-48
2023/09/28 05:54:32;;;;;;;43.47;41.07;;;;;;;16.58;100.00;101319.47;4953164;28;20793;-42
2023/09/28 05:57:00;;;;;;;45.97;43.13;;;;;;;16.60;100.00;101320.09;4953489;28;20470;-42
2023/09/28 05:59:27;;;;;;;45.13;42.20;;;;;;;16.61;100.00;101324.41;4953384;28;20502;-44
2023/09/28 06:01:55;;;;;;;42.50;39.63;;;;;;;16.64;100.00;101329.34;4953213;28;20466;-40
2023/09/28 06:04:25;;;;;;;43.27;40.23;;;;;;;16.65;100.00;101324.81;4953508;28;20451;-42
2023/09/28 06:06:53;;;;;;;43.27;40.77;;;;;;;16.69;100.00;101320.63;4953374;28;20596;-42
2023/09/28 06:09:22;;;;;;;41.60;39.40;;;;;;;16.72;100.00;101329.09;4945733;29;20498;-42
2023/09/28 06:11:50;;;;;;;41.50;39.20;;;;;;;16.76;100.00;101332.97;4953592;28;21061;-41
2023/09/28 06:14:19;;;;;;;42.10;39.83;;;;;;;16.79;100.00;101335.22;4953640;28;20436;-41
2023/09/28 06:16:47;;;;;;;40.97;38.87;;;;;;;16.84;100.00;101343.47;4953152;28;20471;-44
2023/09/28 06:19:15;;;;;;;41.77;39.53;;;;;;;16.91;100.00;101344.22;4953394;28;20436;-45
2023/09/28 06:21:42;;;;;;;41.63;39.10;;;;;;;16.97;100.00;101359.47;4952969;28;20829;-42
2023/09/28 06:24:10;;;;;;;41.43;39.20;;;;;;;17.05;100.00;101355.69;4953031;28;20935;-43
2023/09/28 06:26:40;;;;;;;43.13;40.40;;;;;;;17.11;100.00;101355.59;4952238;28;20463;-41
2023/09/28 06:29:10;;;;;;;41.97;39.37;;;;;;;17.19;100.00;101357.19;4953307;28;20475;-44
2023/09/28 06:31:39;;;;;;;39.60;37.10;;;;;;;17.27;100.00;101354.16;4952892;28;20528;-42
2023/09/28 06:34:07;;;;;;;41.23;38.50;;;;;;;17.32;100.00;101357.03;4952823;28;20538;-42
2023/09/28 06:36:35;;;;;;;39.20;37.07;;;;;;;17.38;100.00;101358.78;4952747;28;20463;-43
2023/09/28 06:39:06;;;;;;;38.67;36.60;;;;;;;17.42;100.00;101362.69;4953350;28;20432;-41
2023/09/28 06:41:34;;;;;;;39.67;37.47;;;;;;;17.48;100.00;101366.34;4952840;28;20466;-42
2023/09/28 06:44:03;;;;;;;40.67;38.37;;;;;;;17.54;100.00;101366.31;4953145;29;20498;-44
2023/09/28 06:46:30;;;;;;;41.73;39.33;;;;;;;17.59;100.00;101371.84;4952596;28;20470;-41
2023/09/28 06:48:59;;;;;;;39.27;37.30;;;;;;;17.63;100.00;101364.13;4952758;28;20436;-43
2023/09/28 06:51:27;;;;;;;40.73;38.27;;;;;;;17.71;100.00;101371.09;4952672;28;20466;-41
2023/09/28 06:53:55;;;;;;;42.07;39.87;;;;;;;17.76;100.00;101372.03;4953029;28;20847;-47
2023/09/28 06:56:23;;;;;;;40.37;38.17;;;;;;;17.79;100.00;101374.28;4952395;28;20481;-44
2023/09/28 06:58:51;;;;;;;40.50;38.37;;;;;;;17.82;100.00;101375.69;4953045;29;20440;-42
2023/09/28 07:01:21;;;;;;;41.00;38.80;;;;;;;17.81;100.00;101374.03;4952581;28;20455;-44
2023/09/28 07:03:52;;;;;;;40.37;38.27;;;;;;;17.86;100.00;101377.69;4953225;28;20922;-40
2023/09/28 07:06:22;;;;;;;41.13;38.67;;;;;;;17.90;100.00;101372.66;4952388;28;20585;-40
2023/09/28 07:08:50;;;;;;;41.33;39.13;;;;;;;18.00;100.00;101383.75;4952997;28;20432;-42
2023/09/28 07:11:19;;;;;;;40.90;38.70;;;;;;;18.06;100.00;101390.94;4955856;28;20454;-42
2023/09/28 07:13:47;;;;;;;42.27;39.87;;;;;;;18.14;100.00;101393.28;4956705;28;20446;-42
2023/09/28 07:16:15;;;;;;;40.10;37.90;;;;;;;18.18;100.00;101391.78;4955966;28;20451;-41
2023/09/28 07:18:44;;;;;;;40.83;38.73;;;;;;;18.17;100.00;101395.53;4956723;28;20443;-45
2023/09/28 07:21:12;;;;;;;41.23;39.13;;;;;;;18.10;100.00;101392.91;4956436;28;20451;-43
2023/09/28 07:23:41;;;;;;;44.17;41.27;;;;;;;18.07;100.00;101401.47;4956592;28;20475;-42
2023/09/28 07:26:16;;;;;;;42.73;40.13;;;;;;;18.12;100.00;101398.94;4955028;28;20837;-44
2023/09/28 07:28:44;;;;;;;42.53;39.83;;;;;;;18.27;100.00;101403.91;4956538;28;20438;-44
2023/09/28 07:31:12;;;;;;;39.70;37.70;;;;;;;18.41;100.00;101399.09;4956303;28;21008;-45
2023/09/28 07:33:41;;;;;;;38.93;36.83;;;;;;;18.92;100.00;101409.28;4956380;28;20482;-43
2023/09/28 07:36:10;;;;;;;39.80;37.33;;;;;;;19.38;100.00;101401.13;4955590;28;20485;-42
2023/09/28 07:38:38;;;;;;;40.30;38.20;;;;;;;19.79;100.00;101395.50;4956323;29;20531;-44
2023/09/28 07:41:06;;;;;;;39.00;36.80;;;;;;;20.07;100.00;101391.94;4956037;28;20830;-40
2023/09/28 07:43:34;;;;;;;40.50;37.80;;;;;;;20.35;100.00;101394.66;4956478;29;20803;-42
2023/09/28 07:46:02;;;;;;;37.80;35.80;;;;;;;20.51;100.00;101397.63;4955322;28;20871;-43
2023/09/28 07:48:29;;;;;;;38.80;36.80;;;;;;;20.66;100.00;101401.41;4955855;29;20498;-42
2023/09/28 07:50:58;;;;;;;37.73;35.83;;;;;;;20.68;100.00;101391.13;4955381;28;20538;-45
2023/09/28 07:53:28;;;;;;;38.27;36.40;;;;;;;20.68;100.00;101393.84;4955845;29;20442;-43
2023/09/28 07:55:56;;;;;;;37.47;35.27;;;;;;;20.80;100.00;101396.47;4955407;28;20470;-40
2023/09/28 07:58:24;;;;;;;38.07;35.97;;;;;;;20.93;100.00;101396.13;4956036;29;20442;-44
2023/09/28 08:00:55;;;;;;;37.90;35.93;;;;;;;21.03;100.00;101407.09;4955673;28;20431;-43
2023/09/28 08:03:22;;;;;;;35.40;33.73;;;;;;;21.02;100.00;101416.31;4955872;29;20435;-42
2023/09/28 08:05:53;;;;;;;33.93;32.33;;;;;;;21.16;100.00;101424.94;4955153;28;20459;-42
2023/09/28 08:08:22;;;;;;;33.80;32.00;;;;;;;21.18;100.00;101418.19;4955717;29;20931;-43
2023/09/28 08:10:51;;;;;;;36.40;34.27;;;;;;;21.27;100.00;101424.84;4955473;28;20481;-43
2023/09/28 08:13:19;;;;;;;33.33;31.13;;;;;;;21.29;100.00;101424.59;4955692;29;20443;-46
2023/09/28 08:15:48;;;;;;;34.53;32.40;;;;;;;21.43;100.00;101432.13;4955224;28;20514;-42
2023/09/28 08:18:16;;;;;;;31.20;29.70;;;;;;;21.61;100.00;101435.59;4955154;29;20522;-42
2023/09/28 08:20:44;;;;;;;30.50;28.90;;;;;;;21.59;100.00;101435.84;4954977;28;20439;-42
2023/09/28 08:23:22;;;;;;;30.97;29.40;;;;;;;21.56;100.00;101444.50;4955450;29;20449;-42
2023/09/28 08:25:49;;;;;;;32.37;30.77;;;;;;;21.70;100.00;101447.66;4955211;28;20923;-42
2023/09/28 08:28:19;;;;;;;33.43;31.83;;;;;;;21.80;100.00;101458.66;4953804;29;20439;-47
2023/09/28 08:30:46;;;;;;;31.07;29.33;;;;;;;21.89;100.00;101455.22;4955044;28;20475;-45
2023/09/28 08:33:16;;;;;;;34.63;32.67;;;;;;;21.91;100.00;101455.81;4954959;28;20534;-44
2023/09/28 08:35:48;;;;;;;32.37;30.73;;;;;;;21.91;100.00;101453.09;4955069;28;20529;-42
2023/09/28 08:38:15;;;;;;;30.23;28.63;;;;;;;21.95;100.00;101470.50;4955194;29;20435;-45
2023/09/28 08:40:43;;;;;;;30.00;28.50;;;;;;;22.02;100.00;101462.19;4955263;28;20549;-40
2023/09/28 08:43:18;;;;;;;30.57;28.83;;;;;;;21.99;100.00;101459.97;4954942;29;20467;-43
2023/09/28 08:45:50;;;;;;;30.77;29.07;;;;;;;22.08;100.00;101466.59;4954386;28;20486;-42
2023/09/28 08:48:22;;;;;;;34.03;31.00;;;;;;;22.05;100.00;101473.34;4954922;29;20435;-43
2023/09/28 08:50:56;;;;;;;30.33;28.47;;;;;;;22.11;100.00;101463.34;4946574;28;20479;-43
2023/09/28 08:53:24;;;;;;;28.90;27.47;;;;;;;22.17;100.00;101481.34;4955024;28;20447;-43
2023/09/28 08:55:52;;;;;;;27.37;25.83;;;;;;;22.11;100.00;101467.97;4954531;28;20468;-43
2023/09/28 08:58:22;;;;;;;26.07;24.67;;;;;;;22.10;100.00;101472.59;4954675;29;20442;-44
2023/09/28 09:00:51;;;;;;;28.60;27.00;;;;;;;22.38;100.00;101474.22;4954627;28;20438;-44
2023/09/28 09:03:21;;;;;;;25.07;23.67;;;;;;;22.33;100.00;101466.03;4954880;29;20470;-44
2023/09/28 09:05:51;;;;;;;25.93;24.23;;;;;;;22.47;100.00;101475.41;4954376;28;20546;-46
2023/09/28 09:08:20;;;;;;;26.60;24.83;;;;;;;22.62;100.00;101470.13;4954685;29;20435;-43
2023/09/28 09:10:48;;;;;;;25.07;23.40;;;;;;;22.76;100.00;101463.19;4954296;28;20483;-42
2023/09/28 09:13:16;;;;;;;26.20;24.70;;;;;;;22.69;100.00;101461.78;4954234;28;20989;-44
2023/09/28 09:15:44;;;;;;;24.87;23.37;;;;;;;22.84;100.00;101457.28;4954236;28;20553;-41
2023/09/28 09:18:19;;;;;;;25.90;24.60;;;;;;;22.78;100.00;101473.81;4954472;28;20438;-43
2023/09/28 09:20:47;;;;;;;23.90;22.60;;;;;;;22.89;100.00;101464.66;4954286;28;20435;-41
2023/09/28 09:23:16;;;;;;;23.30;21.70;;;;;;;22.82;100.00;101461.34;4954332;28;20442;-44
2023/09/28 09:25:47;;;;;;;23.90;21.90;;;;;;;22.81;100.00;101448.84;4954121;28;20459;-42
2023/09/28 09:28:28;;;;;;;23.43;21.90;;;;;;;22.84;100.00;101446.41;4952497;28;20439;-42
2023/09/28 09:30:56;;;;;;;20.57;19.30;;;;;;;22.87;100.00;101443.19;4953922;28;20530;-44
2023/09/28 09:33:25;;;;;;;21.70;19.90;;;;;;;22.66;100.00;101460.41;4953309;28;20486;-41
2023/09/28 09:35:53;;;;;;;20.13;18.40;;;;;;;22.68;100.00;101446.53;4953517;28;20463;-42
2023/09/28 09:38:24;;;;;;;20.60;19.10;;;;;;;22.70;100.00;101447.91;4954104;29;20435;-43
2023/09/28 09:41:00;;;;;;;19.20;17.77;;;;;;;22.93;100.00;101460.34;4954121;28;20784;-49
2023/09/28 09:43:31;;;;;;;18.23;17.07;;;;;;;23.17;100.00;101456.16;4953926;29;20435;-42
2023/09/28 09:45:59;;;;;;;19.00;17.47;;;;;;;23.41;100.00;101462.88;4953293;28;20474;-40
2023/09/28 09:48:29;;;;;;;19.97;18.40;;;;;;;23.54;100.00;101467.00;4953900;28;20450;-42
2023/09/28 09:50:57;;;;;;;21.63;16.53;;;;;;;23.57;100.00;101472.72;4953891;28;20485;-42
2023/09/28 09:53:26;;;;;;;17.77;16.27;;;;;;;23.60;100.00;101468.66;4953880;28;20692;-43
2023/09/28 09:55:56;;;;;;;18.30;16.70;;;;;;;23.87;100.00;101469.31;4953543;28;20832;-46
2023/09/28 09:58:35;;;;;;;16.67;15.00;;;;;;;23.82;100.00;101468.50;4953590;29;20446;-44
2023/09/28 10:01:04;;;;;;;13.77;12.77;;;;;;;23.62;100.00;101477.41;4953653;28;20473;-43
2023/09/28 10:03:35;;;;;;;14.80;13.47;;;;;;;23.78;100.00;101481.00;4953662;29;20439;-46
2023/09/28 10:06:04;;;;;;;13.07;11.73;;;;;;;23.79;100.00;101479.91;4953392;28;20494;-45
2023/09/28 10:08:33;;;;;;;13.67;12.20;;;;;;;23.79;100.00;101471.75;4953575;29;20431;-42
2023/09/28 10:11:04;;;;;;;12.40;11.10;;;;;;;23.63;100.00;101468.94;4952908;28;20566;-44
2023/09/28 10:13:34;;;;;;;15.60;11.77;;;;;;;23.21;100.00;101481.75;4953531;28;20857;-43
2023/09/28 10:16:02;;;;;;;14.93;12.33;;;;;;;23.15;100.00;101491.78;4952916;28;20464;-44
2023/09/28 10:18:33;;;;;;;12.40;11.10;;;;;;;23.19;100.00;101488.53;4953499;29;20436;-43
2023/09/28 10:21:02;;;;;;;12.40;11.00;;;;;;;23.37;100.00;101480.78;4953189;28;20459;-45
2023/09/28 10:23:31;;;;;;;12.50;11.30;;;;;;;23.38;100.00;101485.13;4953463;29;20514;-44
2023/09/28 10:25:59;;;;;;;11.77;10.60;;;;;;;23.76;100.00;101485.88;4951978;28;20978;-42
2023/09/28 10:28:27;;;;;;;13.00;11.90;;;;;;;24.05;100.00;101485.19;4952659;29;20518;-42
2023/09/28 10:31:10;;;;;;;12.53;11.03;;;;;;;23.85;100.00;101506.09;4953017;28;20443;-42
2023/09/28 10:33:59;;;;;;;14.63;10.20;;;;;;;23.43;100.00;101515.13;4945767;29;20534;-47
2023/09/28 10:36:30;;;;;;;13.73;11.17;;;;;;;23.08;100.00;101504.81;4953076;28;20529;-49
2023/09/28 10:39:11;;;;;;;17.40;10.30;;;;;;;22.78;100.00;101511.88;4953156;29;20486;-42
2023/09/28 10:41:39;;;;;;;13.70;10.77;;;;;;;22.68;100.00;101517.22;4945796;28;20483;-43
2023/09/28 10:44:16;;;;;;;15.23;10.80;;;;;;;22.59;100.00;101514.94;4952363;28;20859;-42
2023/09/28 10:46:47;;;;;;;12.03;10.80;;;;;;;22.29;100.00;101514.63;4952624;28;20983;-42
2023/09/28 10:49:22;;;;;;;19.53;12.40;;;;;;;22.23;100.00;101531.13;4953132;28;20434;-43
2023/09/28 10:51:53;;;;;;;15.63;10.90;;;;;;;21.99;100.00;101530.59;4953102;28;20491;-42
2023/09/28 10:54:21;;;;;;;17.90;11.90;;;;;;;21.81;100.00;101528.13;4952833;28;20451;-43
2023/09/28 10:56:50;;;;;;;23.20;12.37;;;;;;;21.66;100.00;101533.38;4952755;28;20462;-40
2023/09/28 10:59:20;;;;;;;19.17;12.03;;;;;;;21.75;100.00;101526.44;4952988;28;20493;-42
2023/09/28 11:01:49;;;;;;;14.33;11.23;;;;;;;21.61;100.00;101528.69;4952882;28;20463;-45
2023/09/28 11:04:17;;;;;;;16.20;11.40;;;;;;;21.68;100.00;101534.78;4953251;28;20486;-43
2023/09/28 11:06:56;;;;;;;16.57;10.83;;;;;;;21.50;100.00;101541.28;4952922;28;20967;-45
2023/09/28 11:09:29;;;;;;;15.57;11.70;;;;;;;21.81;100.00;101539.81;4952870;29;20445;-45
2023/09/28 11:11:57;;;;;;;13.27;11.70;;;;;;;21.98;100.00;101534.38;4952760;28;20493;-42
2023/09/28 11:14:25;;;;;;;16.03;11.10;;;;;;;21.93;100.00;101542.44;4953062;28;20446;-44
2023/09/28 11:16:53;;;;;;;12.77;11.47;;;;;;;21.69;100.00;101539.13;4952724;29;20851;-42
2023/09/28 11:19:22;;;;;;;12.07;10.43;;;;;;;21.67;100.00;101559.44;4952970;28;20435;-43
2023/09/28 11:21:52;;;;;;;20.03;10.87;;;;;;;21.77;100.00;101557.72;4952676;28;20455;-42